createdAt,value
2024-04-04T00:00:31.441Z,675.20
2024-04-04T00:01:31.428Z,675.88
2024-04-04T00:02:31.446Z,671.83
2024-04-04T00:03:31.436Z,670.49
2024-04-04T00:04:31.424Z,669.15
2024-04-04T00:05:31.376Z,667.16
2024-04-04T00:06:31.364Z,664.52
2024-04-04T00:07:31.389Z,651.00
2024-04-04T00:08:31.342Z,645.99
2024-04-04T00:09:31.351Z,631.42
2024-04-04T00:10:31.325Z,623.22
2024-04-04T00:11:31.297Z,611.86
2024-04-04T00:12:31.283Z,607.99
2024-04-04T00:13:31.273Z,598.78
2024-04-04T00:14:31.294Z,588.29
2024-04-04T00:15:31.252Z,582.17
2024-04-04T00:16:31.269Z,571.28
2024-04-04T00:17:31.236Z,568.38
2024-04-04T00:18:31.217Z,564.09
2024-04-04T00:19:31.202Z,559.86
2024-04-04T00:20:31.222Z,555.69
2024-04-04T00:21:31.184Z,551.13
2024-04-04T00:22:31.159Z,545.76
2024-04-04T00:23:31.163Z,539.19
2024-04-04T00:24:31.138Z,534.90
2024-04-04T00:25:31.132Z,529.00
2024-04-04T00:26:31.164Z,525.69
2024-04-04T00:27:31.097Z,519.99
2024-04-04T00:28:31.091Z,514.42
2024-04-04T00:29:31.083Z,512.06
2024-04-04T00:30:31.066Z,508.19
2024-04-04T00:31:31.062Z,505.51
2024-04-04T00:32:31.111Z,504.38
2024-04-04T00:33:31.042Z,498.76
2024-04-04T00:34:31.012Z,496.91
2024-04-04T00:35:31.031Z,497.65
2024-04-04T00:36:31.000Z,496.18
2024-04-04T00:37:30.974Z,495.81
2024-04-04T00:38:31.000Z,494.72
2024-04-04T00:39:30.957Z,496.55
2024-04-04T00:40:30.938Z,496.18
2024-04-04T00:41:30.926Z,500.62
2024-04-04T00:42:30.906Z,499.87
2024-04-04T00:43:30.896Z,502.11
2024-04-04T00:44:30.897Z,506.66
2024-04-04T00:45:30.874Z,508.19
2024-04-04T00:46:30.857Z,512.45
2024-04-04T00:47:30.864Z,508.19
2024-04-04T00:48:30.834Z,510.12
2024-04-04T00:49:30.870Z,510.51
2024-04-04T00:50:30.811Z,515.21
2024-04-04T00:51:30.833Z,509.73
2024-04-04T00:52:30.800Z,507.04
2024-04-04T00:53:30.779Z,513.63
2024-04-04T00:54:30.757Z,511.28
2024-04-04T00:55:30.779Z,511.28
2024-04-04T00:56:30.728Z,510.12
2024-04-04T00:57:30.719Z,506.66
2024-04-04T00:58:30.707Z,504.75
2024-04-04T00:59:30.702Z,506.66
2024-04-04T01:00:30.708Z,501.74
2024-04-04T01:01:30.679Z,499.13
2024-04-04T01:02:30.654Z,496.91
2024-04-04T01:03:30.646Z,498.02
2024-04-04T01:04:30.638Z,495.08
2024-04-04T01:05:30.631Z,493.27
2024-04-04T01:06:30.650Z,484.03
2024-04-04T01:07:30.608Z,484.03
2024-04-04T01:08:30.576Z,481.94
2024-04-04T01:09:30.575Z,477.15
2024-04-04T01:10:30.567Z,472.79
2024-04-04T01:11:30.553Z,472.12
2024-04-04T01:12:30.579Z,471.79
2024-04-04T01:13:31.423Z,468.17
2024-04-04T01:14:30.511Z,465.58
2024-04-04T01:15:30.492Z,461.10
2024-04-04T01:16:30.478Z,460.47
2024-04-04T01:17:30.575Z,455.79
2024-04-04T01:18:30.486Z,453.94
2024-04-04T01:19:30.452Z,450.29
2024-04-04T01:20:30.422Z,446.40
2024-04-04T01:21:30.419Z,442.87
2024-04-04T01:22:30.397Z,443.74
2024-04-04T01:23:30.432Z,436.82
2024-04-04T01:24:30.379Z,437.39
2024-04-04T01:25:30.369Z,435.12
2024-04-04T01:26:30.358Z,430.11
2024-04-04T01:27:30.337Z,428.19
2024-04-04T01:28:30.371Z,424.13
2024-04-04T01:29:30.362Z,423.60
2024-04-04T01:30:30.307Z,421.74
2024-04-04T01:31:30.291Z,418.85
2024-04-04T01:32:30.357Z,414.45
2024-04-04T01:33:30.272Z,411.91
2024-04-04T01:34:30.252Z,410.40
2024-04-04T01:35:30.301Z,406.67
2024-04-04T01:36:30.264Z,403.26
2024-04-04T01:37:30.213Z,403.50
2024-04-04T01:38:30.198Z,397.53
2024-04-04T01:39:30.208Z,396.59
2024-04-04T01:40:30.239Z,391.28
2024-04-04T01:41:30.178Z,387.67
2024-04-04T01:42:30.149Z,383.68
2024-04-04T01:43:30.149Z,376.27
2024-04-04T01:44:30.118Z,374.57
2024-04-04T01:45:30.116Z,371.20
2024-04-04T01:46:30.126Z,365.86
2024-04-04T01:47:30.126Z,361.46
2024-04-04T01:48:30.077Z,360.67
2024-04-04T01:49:30.059Z,356.39
2024-04-04T01:50:30.040Z,349.98
2024-04-04T01:51:30.031Z,347.77
2024-04-04T01:52:30.035Z,343.43
2024-04-04T01:53:30.009Z,340.60
2024-04-04T01:54:29.979Z,337.13
2024-04-04T01:55:29.983Z,331.72
2024-04-04T01:56:29.965Z,328.42
2024-04-04T01:57:30.005Z,326.48
2024-04-04T01:58:29.948Z,323.28
2024-04-04T01:59:29.928Z,322.34
2024-04-04T02:00:29.922Z,318.30
2024-04-04T02:01:29.905Z,314.67
2024-04-04T02:02:29.900Z,311.99
2024-04-04T02:03:29.905Z,309.66
2024-04-04T02:04:29.878Z,305.93
2024-04-04T02:05:29.862Z,303.12
2024-04-04T02:06:29.846Z,301.19
2024-04-04T02:07:29.826Z,298.47
2024-04-04T02:08:29.832Z,295.01
2024-04-04T02:09:29.839Z,293.44
2024-04-04T02:10:29.781Z,292.66
2024-04-04T02:11:29.771Z,288.82
2024-04-04T02:12:29.758Z,289.33
2024-04-04T02:13:29.762Z,287.82
2024-04-04T02:14:29.762Z,286.32
2024-04-04T02:15:29.742Z,285.09
2024-04-04T02:16:29.734Z,283.38
2024-04-04T02:17:29.741Z,280.02
2024-04-04T02:18:29.711Z,280.49
2024-04-04T02:19:29.701Z,280.49
2024-04-04T02:20:29.719Z,279.07
2024-04-04T02:21:29.656Z,278.60
2024-04-04T02:22:29.651Z,279.78
2024-04-04T02:23:29.628Z,280.49
2024-04-04T02:24:29.626Z,279.54
2024-04-04T02:25:29.603Z,280.02
2024-04-04T02:26:29.592Z,279.54
2024-04-04T02:27:29.581Z,281.45
2024-04-04T02:28:29.570Z,280.25
2024-04-04T02:29:29.553Z,280.97
2024-04-04T02:30:29.533Z,278.60
2024-04-04T02:31:29.553Z,278.13
2024-04-04T02:32:29.525Z,278.83
2024-04-04T02:33:29.498Z,278.60
2024-04-04T02:34:29.489Z,277.90
2024-04-04T02:35:29.489Z,275.81
2024-04-04T02:36:30.900Z,275.35
2024-04-04T02:37:29.480Z,275.81
2024-04-04T02:38:29.438Z,274.21
2024-04-04T02:39:29.425Z,271.73
2024-04-04T02:40:29.400Z,270.62
2024-04-04T02:41:29.430Z,270.17
2024-04-04T02:42:29.428Z,269.30
2024-04-04T02:43:29.390Z,266.47
2024-04-04T02:44:29.359Z,264.77
2024-04-04T02:45:29.360Z,263.08
2024-04-04T02:46:29.328Z,262.66
2024-04-04T02:47:29.450Z,261.62
2024-04-04T02:48:29.338Z,261.42
2024-04-04T02:49:29.305Z,259.16
2024-04-04T02:50:29.286Z,258.96
2024-04-04T02:51:29.272Z,258.15
2024-04-04T02:52:29.255Z,258.76
2024-04-04T02:53:29.475Z,256.55
2024-04-04T02:54:29.256Z,257.35
2024-04-04T02:55:29.237Z,255.75
2024-04-04T02:56:29.198Z,255.95
2024-04-04T02:57:29.200Z,256.55
2024-04-04T02:58:29.199Z,256.15
2024-04-04T02:59:29.178Z,256.95
2024-04-04T03:00:29.282Z,257.95
2024-04-04T03:01:29.139Z,256.55
2024-04-04T03:02:29.165Z,258.96
2024-04-04T03:03:29.126Z,258.15
2024-04-04T03:04:29.107Z,255.36
2024-04-04T03:05:29.121Z,257.35
2024-04-04T03:06:29.072Z,256.55
2024-04-04T03:07:29.058Z,256.15
2024-04-04T03:08:29.058Z,255.75
2024-04-04T03:09:29.036Z,255.55
2024-04-04T03:10:29.035Z,253.79
2024-04-04T03:11:29.072Z,253.40
2024-04-04T03:12:30.469Z,253.40
2024-04-04T03:13:29.000Z,253.59
2024-04-04T03:14:28.982Z,252.43
2024-04-04T03:15:28.962Z,250.71
2024-04-04T03:16:28.956Z,251.47
2024-04-04T03:17:28.999Z,250.71
2024-04-04T03:18:28.961Z,249.95
2024-04-04T03:19:28.915Z,249.95
2024-04-04T03:20:28.914Z,249.76
2024-04-04T03:21:28.885Z,249.38
2024-04-04T03:22:29.396Z,247.70
2024-04-04T03:23:28.879Z,247.89
2024-04-04T03:24:28.886Z,246.23
2024-04-04T03:25:28.849Z,248.07
2024-04-04T03:26:28.829Z,248.45
2024-04-04T03:27:28.839Z,249.01
2024-04-04T03:28:28.824Z,247.33
2024-04-04T03:29:28.781Z,247.33
2024-04-04T03:30:28.800Z,246.60
2024-04-04T03:31:28.753Z,247.52
2024-04-04T03:32:28.750Z,247.33
2024-04-04T03:33:28.730Z,246.04
2024-04-04T03:34:28.731Z,246.60
2024-04-04T03:35:28.701Z,246.96
2024-04-04T03:36:28.724Z,247.52
2024-04-04T03:37:28.678Z,246.60
2024-04-04T03:38:28.677Z,245.13
2024-04-04T03:39:28.692Z,246.04
2024-04-04T03:40:28.652Z,245.13
2024-04-04T03:41:28.641Z,245.68
2024-04-04T03:42:28.620Z,244.41
2024-04-04T03:43:28.597Z,244.05
2024-04-04T03:44:28.603Z,244.41
2024-04-04T03:45:28.615Z,244.59
2024-04-04T03:46:28.580Z,243.87
2024-04-04T03:47:28.576Z,243.69
2024-04-04T03:48:28.536Z,242.43
2024-04-04T03:49:28.534Z,242.43
2024-04-04T03:50:28.529Z,240.32
2024-04-04T03:51:28.528Z,239.28
2024-04-04T03:52:28.500Z,239.80
2024-04-04T03:53:28.474Z,237.90
2024-04-04T03:54:28.474Z,235.36
2024-04-04T03:55:28.459Z,234.36
2024-04-04T03:56:28.486Z,234.52
2024-04-04T03:57:28.422Z,232.38
2024-04-04T03:58:28.423Z,230.12
2024-04-04T03:59:28.418Z,226.96
2024-04-04T04:00:28.391Z,225.72
2024-04-04T04:01:28.374Z,224.95
2024-04-04T04:02:28.434Z,223.88
2024-04-04T04:03:28.351Z,220.60
2024-04-04T04:04:28.344Z,219.42
2024-04-04T04:05:28.328Z,219.86
2024-04-04T04:06:28.326Z,216.69
2024-04-04T04:07:28.326Z,214.58
2024-04-04T04:08:28.304Z,214.16
2024-04-04T04:09:28.290Z,213.20
2024-04-04T04:10:28.262Z,212.24
2024-04-04T04:11:28.268Z,211.02
2024-04-04T04:12:28.283Z,210.62
2024-04-04T04:13:28.257Z,211.15
2024-04-04T04:14:28.213Z,211.42
2024-04-04T04:15:28.197Z,211.56
2024-04-04T04:16:28.191Z,210.08
2024-04-04T04:17:28.203Z,208.49
2024-04-04T04:18:28.177Z,208.36
2024-04-04T04:19:28.223Z,208.62
2024-04-04T04:20:28.148Z,209.81
2024-04-04T04:21:28.121Z,208.75
2024-04-04T04:22:28.108Z,208.62
2024-04-04T04:23:28.100Z,209.02
2024-04-04T04:24:28.085Z,208.62
2024-04-04T04:25:28.105Z,210.62
2024-04-04T04:26:29.185Z,209.68
2024-04-04T04:27:28.041Z,210.08
2024-04-04T04:28:28.041Z,209.81
2024-04-04T04:29:28.034Z,209.55
2024-04-04T04:30:28.013Z,209.02
2024-04-04T04:31:28.017Z,208.23
2024-04-04T04:32:27.996Z,207.97
2024-04-04T04:33:27.960Z,208.49
2024-04-04T04:34:27.951Z,209.55
2024-04-04T04:35:27.947Z,207.18
2024-04-04T04:36:27.927Z,207.57
2024-04-04T04:37:27.939Z,207.57
2024-04-04T04:38:27.902Z,208.62
2024-04-04T04:39:27.900Z,210.08
2024-04-04T04:40:27.885Z,212.24
2024-04-04T04:41:27.866Z,209.28
2024-04-04T04:42:27.856Z,212.51
2024-04-04T04:43:27.844Z,213.06
2024-04-04T04:44:27.832Z,213.89
2024-04-04T04:45:27.822Z,212.51
2024-04-04T04:46:27.797Z,217.12
2024-04-04T04:47:27.808Z,215.70
2024-04-04T04:48:27.801Z,217.83
2024-04-04T04:49:27.773Z,218.26
2024-04-04T04:50:27.749Z,221.04
2024-04-04T04:51:27.749Z,221.63
2024-04-04T04:52:27.740Z,226.49
2024-04-04T04:53:27.706Z,226.96
2024-04-04T04:54:27.735Z,230.44
2024-04-04T04:55:27.676Z,233.70
2024-04-04T04:56:27.682Z,233.86
2024-04-04T04:57:27.665Z,237.73
2024-04-04T04:58:27.691Z,240.15
2024-04-04T04:59:27.637Z,245.31
2024-04-04T05:00:27.646Z,249.01
2024-04-04T05:01:27.612Z,252.05
2024-04-04T05:02:27.638Z,253.79
2024-04-04T05:03:27.612Z,258.15
2024-04-04T05:04:27.608Z,259.98
2024-04-04T05:05:27.579Z,263.08
2024-04-04T05:06:27.559Z,264.13
2024-04-04T05:07:27.538Z,267.33
2024-04-04T05:08:27.527Z,269.08
2024-04-04T05:09:27.534Z,272.18
2024-04-04T05:10:27.523Z,272.63
2024-04-04T05:11:27.547Z,274.21
2024-04-04T05:12:27.473Z,272.85
2024-04-04T05:13:27.472Z,275.12
2024-04-04T05:14:27.444Z,275.12
2024-04-04T05:15:27.448Z,274.89
2024-04-04T05:16:27.432Z,272.40
2024-04-04T05:17:27.446Z,272.40
2024-04-04T05:18:27.403Z,271.51
2024-04-04T05:19:27.396Z,271.51
2024-04-04T05:20:27.379Z,272.40
2024-04-04T05:21:27.360Z,274.89
2024-04-04T05:22:27.369Z,275.35
2024-04-04T05:23:27.336Z,275.12
2024-04-04T05:24:27.324Z,278.13
2024-04-04T05:25:27.437Z,277.66
2024-04-04T05:26:27.295Z,277.20
2024-04-04T05:27:27.274Z,277.66
2024-04-04T05:28:27.313Z,279.07
2024-04-04T05:29:27.258Z,280.02
2024-04-04T05:30:28.251Z,280.25
2024-04-04T05:31:27.221Z,284.84
2024-04-04T05:32:27.224Z,287.32
2024-04-04T05:33:27.208Z,288.32
2024-04-04T05:34:27.195Z,291.88
2024-04-04T05:35:27.179Z,292.92
2024-04-04T05:36:27.172Z,295.54
2024-04-04T05:37:27.166Z,299.83
2024-04-04T05:38:27.145Z,301.47
2024-04-04T05:39:27.162Z,304.52
2024-04-04T05:40:27.123Z,304.52
2024-04-04T05:41:27.099Z,308.21
2024-04-04T05:42:27.110Z,311.70
2024-04-04T05:43:27.077Z,315.27
2024-04-04T05:44:27.054Z,317.39
2024-04-04T05:45:27.112Z,319.23
2024-04-04T05:46:27.047Z,321.40
2024-04-04T05:47:27.086Z,321.08
2024-04-04T05:48:27.022Z,323.92
2024-04-04T05:49:26.988Z,327.77
2024-04-04T05:50:26.991Z,328.42
2024-04-04T05:51:26.983Z,328.42
2024-04-04T05:52:26.954Z,330.39
2024-04-04T05:53:26.936Z,329.08
2024-04-04T05:54:26.924Z,330.06
2024-04-04T05:55:27.016Z,331.72
2024-04-04T05:56:26.923Z,331.72
2024-04-04T05:57:26.981Z,331.05
2024-04-04T05:58:26.886Z,332.39
2024-04-04T05:59:26.858Z,333.39
2024-04-04T06:00:26.847Z,336.10
2024-04-04T06:01:27.650Z,341.31
2024-04-04T06:02:26.864Z,343.08
2024-04-04T06:03:26.833Z,348.14
2024-04-04T06:04:31.771Z,347.77
2024-04-04T06:05:26.790Z,346.31
2024-04-04T06:06:26.768Z,349.98
2024-04-04T06:07:26.795Z,351.47
2024-04-04T06:08:26.761Z,357.16
2024-04-04T06:09:26.743Z,365.46
2024-04-04T06:10:26.733Z,374.14
2024-04-04T06:11:26.708Z,380.42
2024-04-04T06:12:26.707Z,388.79
2024-04-04T06:13:26.739Z,401.09
2024-04-04T06:14:26.679Z,415.73
2024-04-04T06:15:26.654Z,436.25
2024-04-04T06:16:26.665Z,460.16
2024-04-04T06:17:26.637Z,490.74
2024-04-04T06:18:26.635Z,512.84
2024-04-04T06:19:26.638Z,553.40
2024-04-04T06:20:26.591Z,580.16
2024-04-04T06:21:26.575Z,592.96
2024-04-04T06:22:26.573Z,623.22
2024-04-04T06:23:26.562Z,665.84
2024-04-04T06:24:26.559Z,699.09
2024-04-04T06:25:26.550Z,730.25
2024-04-04T06:26:26.505Z,756.47
2024-04-04T06:27:26.527Z,779.26
2024-04-04T06:28:26.513Z,803.46
2024-04-04T06:29:26.480Z,843.79
2024-04-04T06:30:26.513Z,877.36
2024-04-04T06:31:26.459Z,923.76
2024-04-04T06:32:26.446Z,963.47
2024-04-04T06:33:26.439Z,1000.00
2024-04-04T06:34:26.419Z,1029.86
2024-04-04T06:35:26.404Z,1070.86
2024-04-04T06:36:28.152Z,1096.17
2024-04-04T06:37:26.393Z,1143.71
2024-04-04T06:38:26.372Z,1192.38
2024-04-04T06:39:26.346Z,1236.21
2024-04-04T06:40:26.356Z,1289.55
2024-04-04T06:41:26.321Z,1347.69
2024-04-04T06:42:27.880Z,1392.34
2024-04-04T06:43:26.303Z,1415.79
2024-04-04T06:44:26.284Z,1447.79
2024-04-04T06:45:26.283Z,1460.37
2024-04-04T06:46:26.260Z,1486.19
2024-04-04T06:47:26.300Z,1491.13
2024-04-04T06:48:26.232Z,1530.15
2024-04-04T06:49:26.212Z,1553.12
2024-04-04T06:50:26.202Z,1586.08
2024-04-04T06:51:26.198Z,1599.29
2024-04-04T06:52:26.184Z,1626.36
2024-04-04T06:53:26.200Z,1674.97
2024-04-04T06:54:26.194Z,1705.77
2024-04-04T06:55:26.136Z,1752.44
2024-04-04T06:56:26.143Z,1798.13
2024-04-04T06:57:26.128Z,1856.45
2024-04-04T06:58:26.206Z,1902.40
2024-04-04T06:59:26.107Z,1957.79
2024-04-04T07:00:26.108Z,2008.96
2024-04-04T07:01:26.068Z,2050.30
2024-04-04T07:02:26.050Z,2113.12
2024-04-04T07:03:26.050Z,2176.38
2024-04-04T07:04:26.177Z,2206.73
2024-04-04T07:05:26.015Z,2279.66
2024-04-04T07:06:26.008Z,2333.04
2024-04-04T07:07:25.985Z,2410.39
2024-04-04T07:08:25.996Z,2479.26
2024-04-04T07:09:25.963Z,2569.25
2024-04-04T07:10:25.983Z,2668.65
2024-04-04T07:11:25.939Z,2728.19
2024-04-04T07:12:25.933Z,2802.08
2024-04-04T07:13:25.911Z,2846.56
2024-04-04T07:14:25.912Z,2946.33
2024-04-04T07:15:25.890Z,3056.82
2024-04-04T07:16:25.888Z,3108.03
2024-04-04T07:17:25.859Z,3160.99
2024-04-04T07:18:25.843Z,3223.49
2024-04-04T07:19:25.837Z,3268.53
2024-04-04T07:20:25.825Z,3239.01
2024-04-04T07:21:25.851Z,3268.53
2024-04-04T07:22:25.804Z,3276.49
2024-04-04T07:23:25.794Z,3310.77
2024-04-04T07:24:25.771Z,3304.67
2024-04-04T07:25:25.766Z,3402.91
2024-04-04T07:26:25.736Z,3475.45
2024-04-04T07:27:25.776Z,3551.16
2024-04-04T07:28:25.722Z,3644.99
2024-04-04T07:29:25.730Z,3736.11
2024-04-04T07:30:25.701Z,3892.91
2024-04-04T07:31:25.697Z,3961.71
2024-04-04T07:32:25.688Z,4042.07
2024-04-04T07:33:25.679Z,4157.65
2024-04-04T07:34:25.651Z,4273.23
2024-04-04T07:35:25.653Z,4342.21
2024-04-04T07:36:25.637Z,4555.46
2024-04-04T07:37:25.653Z,4629.95
2024-04-04T07:38:25.670Z,4773.73
2024-04-04T07:39:25.602Z,4944.85
2024-04-04T07:40:25.579Z,5018.66
2024-04-04T07:41:25.567Z,5080.26
2024-04-04T07:42:25.569Z,5198.07
2024-04-04T07:43:25.542Z,5114.07
2024-04-04T07:44:25.563Z,5203.10
2024-04-04T07:45:25.528Z,5253.91
2024-04-04T07:46:25.518Z,5342.60
2024-04-04T07:47:25.522Z,5380.00
2024-04-04T07:48:25.482Z,5473.04
2024-04-04T07:49:25.476Z,5557.85
2024-04-04T07:50:25.500Z,5557.85
2024-04-04T07:51:25.456Z,5512.29
2024-04-04T07:52:25.439Z,5439.84
2024-04-04T07:53:25.420Z,5396.19
2024-04-04T07:54:25.410Z,5274.51
2024-04-04T07:55:25.438Z,5193.05
2024-04-04T07:56:25.399Z,5114.07
2024-04-04T07:57:25.384Z,5051.64
2024-04-04T07:58:25.375Z,5023.34
2024-04-04T07:59:25.394Z,5009.31
2024-04-04T08:00:25.334Z,4940.31
2024-04-04T08:01:25.355Z,4917.73
2024-04-04T08:02:25.317Z,4882.03
2024-04-04T08:03:25.296Z,4926.74
2024-04-04T08:04:25.279Z,4890.91
2024-04-04T08:05:25.287Z,4922.23
2024-04-04T08:06:25.307Z,4981.48
2024-04-04T08:07:25.270Z,5042.17
2024-04-04T08:08:25.245Z,5089.88
2024-04-04T08:09:25.251Z,5094.70
2024-04-04T08:10:25.239Z,5163.15
2024-04-04T08:11:25.204Z,5248.78
2024-04-04T08:12:25.218Z,5300.49
2024-04-04T08:13:25.179Z,5353.23
2024-04-04T08:14:25.177Z,5380.00
2024-04-04T08:15:25.179Z,5412.48
2024-04-04T08:16:25.142Z,5445.34
2024-04-04T08:17:25.140Z,5478.62
2024-04-04T08:18:26.456Z,5501.02
2024-04-04T08:19:25.144Z,5557.85
2024-04-04T08:20:25.090Z,5557.85
2024-04-04T08:21:25.087Z,5586.71
2024-04-04T08:22:25.061Z,5723.40
2024-04-04T08:23:25.070Z,5925.11
2024-04-04T08:24:25.056Z,6017.90
2024-04-04T08:25:25.081Z,6061.97
2024-04-04T08:26:25.029Z,6110.16
2024-04-04T08:27:25.009Z,6106.70
2024-04-04T08:28:24.996Z,6079.10
2024-04-04T08:29:25.022Z,6099.77
2024-04-04T08:30:24.977Z,6061.97
2024-04-04T08:31:24.962Z,6017.90
2024-04-04T08:32:24.947Z,5944.75
2024-04-04T08:33:24.948Z,5847.83
2024-04-04T08:34:24.927Z,5735.61
2024-04-04T08:35:25.034Z,5651.26
2024-04-04T08:36:24.904Z,5563.60
2024-04-04T08:37:24.889Z,5598.33
2024-04-04T08:38:24.869Z,5563.60
2024-04-04T08:39:24.853Z,5546.39
2024-04-04T08:40:24.844Z,5489.80
2024-04-04T08:41:24.887Z,5478.62
2024-04-04T08:42:24.828Z,5512.29
2024-04-04T08:43:24.809Z,5529.29
2024-04-04T08:44:24.808Z,5484.20
2024-04-04T08:45:24.880Z,5529.29
2024-04-04T08:46:24.777Z,5484.20
2024-04-04T08:47:24.785Z,5461.93
2024-04-04T08:48:24.760Z,5450.86
2024-04-04T08:49:24.732Z,5434.34
2024-04-04T08:50:33.015Z,5374.62
2024-04-04T08:51:24.713Z,5358.56
2024-04-04T08:52:24.699Z,5274.51
2024-04-04T08:53:24.708Z,5158.20
2024-04-04T08:54:24.665Z,5099.53
2024-04-04T08:55:24.646Z,5123.81
2024-04-04T08:56:24.654Z,5046.90
2024-04-04T08:57:24.634Z,5018.66
2024-04-04T08:58:24.628Z,4913.24
2024-04-04T08:59:24.652Z,4953.96
2024-04-04T09:00:24.595Z,4917.73
2024-04-04T09:01:30.330Z,4917.73
2024-04-04T09:02:24.626Z,4904.28
2024-04-04T09:03:24.588Z,4873.19
2024-04-04T09:04:24.596Z,4829.44
2024-04-04T09:05:24.604Z,4769.50
2024-04-04T09:06:24.583Z,4748.46
2024-04-04T09:07:24.495Z,4795.01
2024-04-04T09:08:24.564Z,4913.24
2024-04-04T09:09:24.580Z,4944.85
2024-04-04T09:10:24.558Z,5133.59
2024-04-04T09:11:24.533Z,5243.67
2024-04-04T09:12:24.454Z,5363.91
2024-04-04T09:13:24.453Z,5439.84
2024-04-04T09:14:24.422Z,5580.91
2024-04-04T09:15:24.444Z,5681.10
2024-04-04T09:16:24.413Z,5809.94
2024-04-04T09:17:24.382Z,5886.21
2024-04-04T09:18:24.402Z,5991.09
2024-04-04T09:19:24.391Z,6089.42
2024-04-04T09:20:24.430Z,6124.08
2024-04-04T09:21:24.340Z,6219.65
2024-04-04T09:22:24.318Z,6205.31
2024-04-04T09:23:24.452Z,6169.73
2024-04-04T09:24:24.308Z,6191.02
2024-04-04T09:25:24.505Z,6255.81
2024-04-04T09:26:24.294Z,6336.87
2024-04-04T09:27:24.268Z,6412.40
2024-04-04T09:28:24.249Z,6427.72
2024-04-04T09:29:24.250Z,6552.98
2024-04-04T09:30:24.233Z,6497.58
2024-04-04T09:31:24.200Z,6683.23
2024-04-04T09:32:24.228Z,6741.85
2024-04-04T09:33:24.181Z,6674.94
2024-04-04T09:34:24.180Z,6589.10
2024-04-04T09:35:24.157Z,6687.38
2024-04-04T09:36:24.147Z,6788.64
2024-04-04T09:37:24.136Z,6857.87
2024-04-04T09:38:24.130Z,6977.95
2024-04-04T09:39:24.109Z,7060.37
2024-04-04T09:40:24.099Z,7009.77
2024-04-04T09:41:24.080Z,7074.29
2024-04-04T09:42:24.080Z,7116.40
2024-04-04T09:43:24.097Z,7051.11
2024-04-04T09:44:24.062Z,7125.83
2024-04-04T09:45:24.047Z,7088.27
2024-04-04T09:46:24.024Z,6955.40
2024-04-04T09:47:24.015Z,7065.00
2024-04-04T09:48:32.420Z,7182.91
2024-04-04T09:49:24.088Z,7107.00
2024-04-04T09:50:24.002Z,7231.18
2024-04-04T09:51:23.961Z,7240.91
2024-04-04T09:52:23.947Z,7231.18
2024-04-04T09:53:23.945Z,7221.48
2024-04-04T09:54:23.930Z,7309.78
2024-04-04T09:55:23.939Z,7250.67
2024-04-04T09:56:23.901Z,7192.51
2024-04-04T09:57:23.876Z,7125.83
2024-04-04T09:58:23.885Z,7125.83
2024-04-04T09:59:23.860Z,7149.50
2024-04-04T10:00:23.868Z,7197.33
2024-04-04T10:01:23.857Z,7023.50
2024-04-04T10:02:23.824Z,6928.52
2024-04-04T10:03:23.816Z,6964.40
2024-04-04T10:04:23.801Z,6857.87
2024-04-04T10:05:23.811Z,6758.79
2024-04-04T10:06:23.815Z,6818.76
2024-04-04T10:07:23.763Z,6810.13
2024-04-04T10:08:23.756Z,6810.13
2024-04-04T10:09:23.735Z,6818.76
2024-04-04T10:10:23.721Z,6893.02
2024-04-04T10:11:23.731Z,6910.73
2024-04-04T10:12:23.697Z,6977.95
2024-04-04T10:13:23.700Z,7088.27
2024-04-04T10:14:23.685Z,7149.50
2024-04-04T10:15:23.663Z,7206.96
2024-04-04T10:16:23.664Z,7405.37
2024-04-04T10:17:23.634Z,7577.46
2024-04-04T10:18:23.701Z,7735.44
2024-04-04T10:19:23.608Z,7814.09
2024-04-04T10:20:23.599Z,8090.23
2024-04-04T10:21:23.611Z,8201.22
2024-04-04T10:22:23.589Z,8406.25
2024-04-04T10:23:23.585Z,8380.06
2024-04-04T10:24:23.551Z,8406.25
2024-04-04T10:25:23.566Z,8526.15
2024-04-04T10:26:23.531Z,8608.00
2024-04-04T10:27:23.571Z,8907.29
2024-04-04T10:28:23.519Z,9103.21
2024-04-04T10:29:30.874Z,9188.73
2024-04-04T10:30:23.546Z,9405.59
2024-04-04T10:31:23.511Z,9781.82
2024-04-04T10:32:23.500Z,9746.38
2024-04-04T10:33:23.474Z,10141.38
2024-04-04T10:34:23.473Z,10346.15
2024-04-04T10:35:23.457Z,10549.02
2024-04-04T10:36:23.437Z,10549.02
2024-04-04T10:37:23.404Z,10685.20
2024-04-04T10:38:23.436Z,10653.46
2024-04-04T10:39:23.388Z,10664.02
2024-04-04T10:40:23.370Z,10879.68
2024-04-04T10:41:23.353Z,11002.04
2024-04-04T10:42:23.337Z,10957.23
2024-04-04T10:43:23.371Z,10901.72
2024-04-04T10:44:23.313Z,10497.56
2024-04-04T10:45:23.306Z,10346.15
2024-04-04T10:46:23.286Z,10074.91
2024-04-04T10:47:23.287Z,9907.92
2024-04-04T10:48:23.277Z,9737.56
2024-04-04T10:49:23.289Z,9513.71
2024-04-04T10:50:23.253Z,9196.58
2024-04-04T10:51:23.227Z,9165.25
2024-04-04T10:52:23.242Z,9196.58
2024-04-04T10:53:23.212Z,9228.13
2024-04-04T10:54:23.192Z,9251.93
2024-04-04T10:55:23.211Z,9356.52
2024-04-04T10:56:23.164Z,9496.91
2024-04-04T10:57:23.155Z,9539.01
2024-04-04T10:58:23.146Z,9539.01
2024-04-04T10:59:23.133Z,9471.83
2024-04-04T11:00:23.169Z,9555.95
2024-04-04T11:01:23.133Z,9581.48
2024-04-04T11:02:23.132Z,9728.75
2024-04-04T11:03:23.092Z,9624.33
2024-04-04T11:04:23.087Z,9684.97
2024-04-04T11:05:23.100Z,9572.95
2024-04-04T11:06:23.075Z,9522.12
2024-04-04T11:07:23.036Z,9547.47
2024-04-04T11:08:23.060Z,9505.30
2024-04-04T11:09:23.013Z,9455.18
2024-04-04T11:10:23.009Z,9539.01
2024-04-04T11:11:23.004Z,9463.50
2024-04-04T11:12:23.000Z,9463.50
2024-04-04T11:13:22.963Z,9251.93
2024-04-04T11:14:22.978Z,9134.13
2024-04-04T11:15:22.938Z,9072.51
2024-04-04T11:16:22.928Z,8981.64
2024-04-04T11:17:22.919Z,8989.14
2024-04-04T11:18:22.938Z,8826.91
2024-04-04T11:19:22.890Z,8755.08
2024-04-04T11:20:22.880Z,8635.63
2024-04-04T11:21:22.868Z,8499.21
2024-04-04T11:22:22.850Z,8270.56
2024-04-04T11:23:22.856Z,8078.08
2024-04-04T11:24:22.850Z,7946.82
2024-04-04T11:25:22.825Z,7911.77
2024-04-04T11:26:22.816Z,7877.01
2024-04-04T11:27:22.781Z,7746.58
2024-04-04T11:28:22.806Z,7535.01
2024-04-04T11:29:22.753Z,7425.81
2024-04-04T11:30:22.754Z,7275.19
2024-04-04T11:31:22.736Z,7144.75
2024-04-04T11:32:22.722Z,7159.02
2024-04-04T11:33:22.706Z,7088.27
2024-04-04T11:34:22.733Z,6977.95
2024-04-04T11:35:22.691Z,6875.40
2024-04-04T11:36:22.680Z,6699.88
2024-04-04T11:37:22.671Z,6605.28
2024-04-04T11:38:22.760Z,6505.44
2024-04-04T11:39:22.634Z,6314.55
2024-04-04T11:40:22.648Z,6255.81
2024-04-04T11:41:22.611Z,6152.09
2024-04-04T11:42:22.604Z,6120.59
2024-04-04T11:43:22.645Z,6075.66
2024-04-04T11:44:22.620Z,6038.16
2024-04-04T11:45:22.591Z,6004.46
2024-04-04T11:46:22.543Z,5892.66
2024-04-04T11:47:22.554Z,5847.83
2024-04-04T11:48:22.513Z,5747.86
2024-04-04T11:49:22.555Z,5717.32
2024-04-04T11:50:22.513Z,5663.16
2024-04-04T11:51:22.504Z,5681.10
2024-04-04T11:52:22.469Z,5639.41
2024-04-04T11:53:22.461Z,5604.17
2024-04-04T11:54:22.500Z,5615.87
2024-04-04T11:55:22.467Z,5540.68
2024-04-04T11:56:22.425Z,5428.86
2024-04-04T11:57:22.424Z,5456.39
2024-04-04T11:58:22.383Z,5390.78
2024-04-04T11:59:22.377Z,5284.87
2024-04-04T12:00:22.382Z,5253.91
2024-04-04T12:01:22.358Z,5213.18
2024-04-04T12:02:22.376Z,5193.05
2024-04-04T12:03:22.330Z,5163.15
2024-04-04T12:04:22.309Z,5114.07
2024-04-04T12:05:22.319Z,5051.64
2024-04-04T12:06:22.292Z,4953.96
2024-04-04T12:07:22.278Z,4864.38
2024-04-04T12:08:29.505Z,4812.16
2024-04-04T12:09:22.259Z,4842.48
2024-04-04T12:10:22.240Z,4838.13
2024-04-04T12:11:22.224Z,4825.11
2024-04-04T12:12:22.211Z,4917.73
2024-04-04T12:13:22.210Z,4908.76
2024-04-04T12:14:22.202Z,4873.19
2024-04-04T12:15:22.184Z,4886.47
2024-04-04T12:16:22.178Z,4846.85
2024-04-04T12:17:22.156Z,4864.38